createdAt,value
2022-12-25T00:00:02.199Z,1007.6524953509106
2022-12-25T00:15:01.780Z,1007.754023831087
2022-12-25T00:30:02.476Z,1007.8736044310532
2022-12-25T00:45:02.079Z,1007.6672403502645
2022-12-25T01:00:01.744Z,1007.5973171153747
2022-12-25T01:15:02.363Z,1007.5719996294547
2022-12-25T01:30:02.103Z,1007.7528550499912
2022-12-25T01:45:01.767Z,1007.75958163421
2022-12-25T02:00:02.407Z,1007.7881917493391
2022-12-25T02:15:05.680Z,1007.8275707300385
2022-12-25T02:30:02.001Z,1007.7761587444942
2022-12-25T02:45:01.648Z,1007.6426908003352
2022-12-25T03:00:02.291Z,1007.6835254078577
2022-12-25T03:15:01.899Z,1007.6122352136626
2022-12-25T03:30:01.570Z,1007.5210433342653
2022-12-25T03:45:02.217Z,1007.5389953141856
2022-12-25T04:00:01.894Z,1007.3722784699079
2022-12-25T04:15:02.522Z,1007.138843730706
2022-12-25T04:30:02.193Z,1007.1385523968039
2022-12-25T04:45:01.864Z,1007.019149259433
2022-12-25T05:00:02.516Z,1006.887313089029
2022-12-25T05:15:02.146Z,1007.0591844161686
2022-12-25T05:30:02.230Z,1007.1519393695562
2022-12-25T05:45:01.845Z,1006.9401817230339
2022-12-25T06:00:02.510Z,1006.8996511452008
2022-12-25T06:15:02.112Z,1006.6221812247646
2022-12-25T06:30:01.763Z,1006.545746562544
2022-12-25T06:45:02.373Z,1006.5996297108085
2022-12-25T07:00:02.003Z,1006.4828954852694
2022-12-25T07:15:01.680Z,1006.2803643826218
2022-12-25T07:30:02.395Z,1006.0990755453431
2022-12-25T07:45:02.035Z,1006.2379444216739
2022-12-25T08:00:01.693Z,1006.16396064915
2022-12-25T08:15:02.350Z,1006.2144715686717
2022-12-25T08:30:02.062Z,1006.2266852485155
2022-12-25T08:45:01.718Z,1006.1112876606333
2022-12-25T09:00:02.372Z,1006.2328545055138
2022-12-25T09:15:02.042Z,1006.4202817907365
2022-12-25T09:30:01.776Z,1005.9534648108972
2022-12-25T09:45:02.420Z,1005.7793012068868
2022-12-25T10:00:02.091Z,1005.756051046673
2022-12-25T10:15:01.693Z,1005.6424227018076
2022-12-25T10:30:02.382Z,1005.7691455997523
2022-12-25T10:45:02.044Z,1005.7610396060384
2022-12-25T11:00:01.754Z,1005.5016767608032
2022-12-25T11:15:02.382Z,1005.4083805247813
2022-12-25T11:30:01.997Z,1005.0825988624881
2022-12-25T11:45:01.675Z,1004.8403718651948
2022-12-25T12:00:02.283Z,1004.3990569852748
2022-12-25T12:15:01.947Z,1004.2629524968346
2022-12-25T12:30:01.655Z,1004.1694128863886
2022-12-25T12:45:02.348Z,1003.8225282929924
2022-12-25T13:00:10.034Z,1003.4719472279011
2022-12-25T13:15:02.250Z,1003.2602715533034
2022-12-25T13:30:01.942Z,1003.0489336889685
2022-12-25T13:45:01.599Z,1002.8668469438406
2022-12-25T14:00:02.201Z,1002.9069016338934
2022-12-25T14:15:01.907Z,1002.7035625056055
2022-12-25T14:30:01.611Z,1002.5978580565616
2022-12-25T14:45:02.214Z,1002.5133423588555
2022-12-25T15:00:01.832Z,1002.3357946969703
2022-12-25T15:15:01.566Z,1002.3002843093801
2022-12-25T15:30:10.816Z,1002.0821288643617
2022-12-25T15:45:01.806Z,1001.7692481310986
2022-12-25T16:00:02.412Z,1001.8153688622019
2022-12-25T16:15:02.027Z,1001.6733588701775
2022-12-25T16:30:01.766Z,1001.6033300529175
2022-12-25T16:45:02.434Z,1001.63988604165
2022-12-25T17:00:02.067Z,1001.4146596728267
2022-12-25T17:15:01.690Z,1001.2776935893703
2022-12-25T17:30:02.329Z,1001.1224430897663
2022-12-25T17:45:01.978Z,1000.9256825032938
2022-12-25T18:00:01.659Z,1000.765328628548
2022-12-25T18:15:02.316Z,1000.8684125757874
2022-12-25T18:30:02.112Z,1000.7680082346945
2022-12-25T18:45:01.755Z,1000.7699442104889
2022-12-25T19:00:02.468Z,1000.7161363733848
2022-12-25T19:15:02.119Z,1000.5810813986636
2022-12-25T19:30:01.842Z,1000.4954767522955
2022-12-25T19:45:02.515Z,1000.3867822567756
2022-12-25T20:00:02.176Z,1000.5165564419517
2022-12-25T20:15:01.799Z,1000.6737754957902
2022-12-25T20:30:02.490Z,1000.701771117848
2022-12-25T20:45:02.125Z,1000.8477373291562
2022-12-25T21:00:01.719Z,1000.8308666028613
2022-12-25T21:15:02.378Z,1000.9068414387856
2022-12-25T21:30:15.373Z,1000.904410375102
2022-12-25T21:45:01.565Z,1000.9793289905846
2022-12-25T22:00:02.178Z,1000.9513683633046
2022-12-25T22:15:01.849Z,1001.0963095851854
2022-12-25T22:30:02.524Z,1001.1835709601032
2022-12-25T22:45:02.135Z,1001.421649157411
2022-12-25T23:00:01.770Z,1001.4978359816216
2022-12-25T23:15:02.407Z,1001.6093836236093
2022-12-25T23:30:02.026Z,1001.3121523304862
2022-12-25T23:45:01.666Z,1001.3151368692551
